Time;durP1;ratioP1;P1;durP2;ratioP2;P2;SDS_P1;SDS_P2;PMS_P1;PMS_P2;Temp;Humidity;BMP_temperature;BMP_pressure;BME280_temperature;BME280_humidity;BME280_pressure;Samples;Min_cycle;Max_cycle;Signal;HPM_P1;HPM_P2
2023/06/14 00:00:56;;;;;;;3.87;3.03;;;;;;;12.21;100.00;95819.88;5009242;28;101953;-61
2023/06/14 00:03:24;;;;;;;2.90;2.70;;;;;;;12.06;100.00;95822.59;5008948;28;105618;-61
2023/06/14 00:05:51;;;;;;;3.00;2.80;;;;;;;12.13;100.00;95818.56;5008212;28;105296;-61
2023/06/14 00:08:18;;;;;;;3.03;2.73;;;;;;;12.14;100.00;95824.69;5012241;28;102198;-61
2023/06/14 00:10:46;;;;;;;3.53;3.07;;;;;;;12.18;100.00;95826.53;5008054;28;105396;-61
2023/06/14 00:13:12;;;;;;;3.90;2.87;;;;;;;11.98;100.00;95826.63;5009088;28;101883;-61
2023/06/14 00:15:39;;;;;;;3.23;2.93;;;;;;;11.96;100.00;95825.28;5008837;28;105183;-61
2023/06/14 00:18:09;;;;;;;3.50;3.10;;;;;;;11.92;100.00;95821.56;5008566;28;105016;-61
2023/06/14 00:20:36;;;;;;;3.20;2.97;;;;;;;11.70;100.00;95821.09;5009083;28;101836;-61
2023/06/14 00:23:03;;;;;;;3.60;3.30;;;;;;;11.43;100.00;95828.59;5008715;28;105111;-61
2023/06/14 00:25:30;;;;;;;4.20;3.20;;;;;;;11.35;100.00;95818.50;5008322;28;105469;-61
2023/06/14 00:27:58;;;;;;;4.40;3.20;;;;;;;11.23;100.00;95818.00;5010437;28;101698;-61
2023/06/14 00:30:25;;;;;;;5.07;3.27;;;;;;;11.14;100.00;95814.25;5012882;28;102328;-61
2023/06/14 00:32:52;;;;;;;2.97;2.77;;;;;;;11.17;100.00;95813.75;5008836;28;101950;-61
2023/06/14 00:35:20;;;;;;;3.40;3.10;;;;;;;11.32;100.00;95814.50;5009029;28;103914;-61
2023/06/14 00:37:47;;;;;;;3.10;2.90;;;;;;;11.19;100.00;95814.25;5008274;28;103758;-61
2023/06/14 00:40:14;;;;;;;3.53;3.20;;;;;;;11.25;100.00;95819.31;5008603;28;102063;-61
2023/06/14 00:42:41;;;;;;;4.03;3.20;;;;;;;11.10;100.00;95811.34;5008767;28;105118;-61
2023/06/14 00:45:09;;;;;;;4.60;3.20;;;;;;;11.24;100.00;95820.34;5007319;28;105362;-61
2023/06/14 00:47:37;;;;;;;3.80;3.20;;;;;;;11.24;100.00;95816.91;5008592;28;101904;-61
2023/06/14 00:50:08;;;;;;;3.60;3.30;;;;;;;11.29;100.00;95819.56;5008429;28;104820;-61
2023/06/14 00:52:37;;;;;;;3.73;3.03;;;;;;;11.32;100.00;95813.69;5011511;28;104212;-61
2023/06/14 00:55:05;;;;;;;3.17;2.97;;;;;;;11.25;100.00;95815.84;5008755;28;104983;-61
2023/06/14 00:57:32;;;;;;;3.13;2.93;;;;;;;11.23;100.00;95818.00;5007869;28;105549;-61
2023/06/14 00:59:59;;;;;;;3.30;3.00;;;;;;;11.13;100.00;95812.66;5008477;28;101887;-61
2023/06/14 01:02:26;;;;;;;5.07;3.07;;;;;;;10.78;100.00;95815.31;5008276;28;105259;-61
2023/06/14 01:04:55;;;;;;;4.00;3.30;;;;;;;10.69;100.00;95820.34;5007823;28;105264;-61
2023/06/14 01:07:33;;;;;;;3.67;3.00;;;;;;;10.75;100.00;95819.28;5008621;28;102012;-61
2023/06/14 01:10:13;;;;;;;7.13;3.17;;;;;;;10.91;100.00;95820.13;5008148;28;105213;-61
2023/06/14 01:12:49;;;;;;;3.80;3.40;;;;;;;10.98;100.00;95807.34;5007415;28;105351;-61
2023/06/14 01:15:17;;;;;;;6.10;3.70;;;;;;;11.00;100.00;95808.69;5011672;28;101832;-61
2023/06/14 01:17:46;;;;;;;5.90;4.20;;;;;;;11.04;100.00;95814.25;5007820;28;104942;-61
2023/06/14 01:20:17;;;;;;;3.73;3.43;;;;;;;11.02;100.00;95811.84;5008184;28;101945;-61
2023/06/14 01:22:52;;;;;;;3.70;3.27;;;;;;;10.93;100.00;95808.16;5009481;28;102683;-61
2023/06/14 01:25:22;;;;;;;3.63;3.23;;;;;;;10.96;100.00;95807.59;5007562;28;103846;-61
2023/06/14 01:27:51;;;;;;;3.30;3.00;;;;;;;11.01;100.00;95810.28;5008078;28;101882;-61
2023/06/14 01:30:19;;;;;;;3.97;3.50;;;;;;;11.00;100.00;95810.53;5007946;28;105061;-61
2023/06/14 01:32:48;;;;;;;4.03;3.60;;;;;;;10.98;100.00;95816.13;5009065;28;103103;-61
2023/06/14 01:35:15;;;;;;;4.43;4.03;;;;;;;10.94;100.00;95819.56;5012856;28;101796;-61
2023/06/14 01:37:43;;;;;;;5.20;4.10;;;;;;;10.74;100.00;95815.03;5007539;28;103633;-61
2023/06/14 01:40:15;;;;;;;8.17;4.13;;;;;;;10.81;100.00;95814.78;5007696;28;101903;-61
2023/06/14 01:42:43;;;;;;;7.10;4.43;;;;;;;10.81;100.00;95825.44;5007855;28;105165;-61
2023/06/14 01:45:11;;;;;;;3.80;3.50;;;;;;;10.43;100.00;95813.44;5007040;28;105502;-61
2023/06/14 01:47:38;;;;;;;3.60;3.30;;;;;;;10.32;100.00;95813.66;5008115;28;102079;-61
2023/06/14 01:50:06;;;;;;;3.40;3.17;;;;;;;10.33;100.00;95807.28;5009153;28;102264;-61
2023/06/14 01:52:33;;;;;;;3.77;3.43;;;;;;;10.29;100.00;95814.97;5007274;28;105350;-61
2023/06/14 01:55:03;;;;;;;4.10;3.20;;;;;;;10.15;100.00;95811.22;5007934;28;101890;-61
2023/06/14 01:57:31;;;;;;;3.77;3.47;;;;;;;10.21;100.00;95809.38;5015699;28;102315;-61
2023/06/14 02:00:00;;;;;;;4.10;3.23;;;;;;;10.04;100.00;95808.78;5011201;28;101966;-61
2023/06/14 02:02:27;;;;;;;3.67;3.37;;;;;;;9.85;100.00;95811.09;5011090;28;105140;-61
2023/06/14 02:04:57;;;;;;;4.17;3.80;;;;;;;10.06;100.00;95817.28;5010389;28;104274;-61
2023/06/14 02:07:24;;;;;;;5.23;3.80;;;;;;;10.11;100.00;95817.31;5011195;28;101860;-61
2023/06/14 02:09:52;;;;;;;4.93;4.50;;;;;;;10.01;100.00;95819.91;5011033;28;104816;-61
2023/06/14 02:12:19;;;;;;;3.80;3.50;;;;;;;9.94;100.00;95816.69;5009763;28;105235;-61
2023/06/14 02:14:48;;;;;;;5.97;4.10;;;;;;;10.01;100.00;95817.25;5011025;28;101844;-61
2023/06/14 02:17:15;;;;;;;4.27;3.70;;;;;;;10.04;100.00;95814.09;5010966;28;105012;-61
2023/06/14 02:19:42;;;;;;;4.33;3.90;;;;;;;9.94;100.00;95822.00;5013661;28;105847;-61
2023/06/14 02:22:09;;;;;;;4.17;3.77;;;;;;;9.84;100.00;95819.31;5010903;28;104918;-61
2023/06/14 02:24:36;;;;;;;3.60;3.30;;;;;;;9.82;100.00;95821.44;5010031;28;105442;-61
2023/06/14 02:27:03;;;;;;;5.17;3.70;;;;;;;9.70;100.00;95813.66;5010779;28;101901;-61
2023/06/14 02:29:30;;;;;;;4.00;3.47;;;;;;;9.51;100.00;95817.00;5010741;28;105536;-61
2023/06/14 02:31:58;;;;;;;5.13;3.73;;;;;;;9.51;100.00;95820.47;5010011;28;105405;-61
2023/06/14 02:34:25;;;;;;;4.90;3.47;;;;;;;9.51;100.00;95823.13;5010406;28;101894;-61
2023/06/14 02:36:52;;;;;;;3.87;3.33;;;;;;;9.41;100.00;95819.59;5010545;28;104936;-61
2023/06/14 02:39:23;;;;;;;4.37;3.77;;;;;;;9.41;100.00;95819.59;5009956;28;105220;-61
2023/06/14 02:41:50;;;;;;;3.90;3.50;;;;;;;9.37;100.00;95819.31;5013916;28;101838;-61
2023/06/14 02:44:19;;;;;;;6.43;4.07;;;;;;;9.52;100.00;95822.06;5009556;28;105423;-61
2023/06/14 02:46:46;;;;;;;4.00;3.60;;;;;;;9.34;100.00;95816.38;5010420;28;102045;-61
2023/06/14 02:49:15;;;;;;;4.07;3.77;;;;;;;9.44;100.00;95816.44;5012919;28;101684;-61
2023/06/14 02:51:42;;;;;;;5.67;3.67;;;;;;;9.49;100.00;95811.16;5009708;28;103704;-61
2023/06/14 02:54:10;;;;;;;4.53;4.13;;;;;;;9.43;100.00;95812.22;5010156;28;101831;-61
2023/06/14 02:56:39;;;;;;;3.80;3.40;;;;;;;9.39;100.00;95816.41;5010297;28;105271;-61
2023/06/14 02:59:07;;;;;;;3.90;3.57;;;;;;;9.14;100.00;95814.41;5009928;28;105148;-61
2023/06/14 03:01:34;;;;;;;4.47;3.87;;;;;;;9.21;100.00;95814.97;5010028;28;101920;-61
2023/06/14 03:04:04;;;;;;;4.20;3.80;;;;;;;9.07;100.00;95823.63;5013024;28;105050;-61
2023/06/14 03:06:37;;;;;;;4.40;3.70;;;;;;;9.13;100.00;95817.31;5010208;28;101981;-61
2023/06/14 03:09:05;;;;;;;4.17;3.77;;;;;;;9.13;100.00;95822.59;5010181;28;105518;-61
2023/06/14 03:11:33;;;;;;;4.43;3.90;;;;;;;9.08;100.00;95826.03;5008899;28;104978;-61
2023/06/14 03:14:03;;;;;;;4.30;3.90;;;;;;;9.10;100.00;95821.25;5010063;28;101960;-61
2023/06/14 03:16:31;;;;;;;3.60;3.30;;;;;;;8.95;100.00;95825.66;5010017;28;105420;-61
2023/06/14 03:18:59;;;;;;;4.30;3.60;;;;;;;8.99;100.00;95832.06;5009103;28;105117;-61
2023/06/14 03:21:29;;;;;;;4.97;3.40;;;;;;;9.08;100.00;95830.53;5010264;28;102441;-61
2023/06/14 03:24:02;;;;;;;4.47;3.67;;;;;;;9.02;100.00;95836.84;5009558;28;106155;-61
2023/06/14 03:26:30;;;;;;;4.13;3.47;;;;;;;9.03;100.00;95830.47;5014418;28;102554;-61
2023/06/14 03:28:57;;;;;;;6.33;4.60;;;;;;;9.09;100.00;95834.78;5009649;28;106162;-61
2023/06/14 03:31:24;;;;;;;4.40;3.80;;;;;;;9.12;100.00;95832.44;5009159;28;105366;-61
2023/06/14 03:33:52;;;;;;;4.07;3.67;;;;;;;9.13;100.00;95833.22;5009748;28;101925;-61
2023/06/14 03:36:20;;;;;;;3.90;3.50;;;;;;;9.25;100.00;95836.47;5011084;28;102607;-61
2023/06/14 03:38:47;;;;;;;4.30;3.90;;;;;;;9.26;100.00;95835.44;5008812;28;105651;-61
2023/06/14 03:41:18;;;;;;;4.10;3.70;;;;;;;9.35;100.00;95836.56;5009651;28;101944;-61
2023/06/14 03:43:45;;;;;;;3.93;3.63;;;;;;;9.34;100.00;95838.41;5009612;28;105399;-61
2023/06/14 03:46:12;;;;;;;4.53;3.67;;;;;;;9.19;100.00;95838.31;5011793;28;105480;-61
2023/06/14 03:48:39;;;;;;;3.50;3.20;;;;;;;9.17;100.00;95843.06;5009755;28;105062;-61
2023/06/14 03:51:07;;;;;;;3.60;3.30;;;;;;;9.15;100.00;95849.66;5008712;28;105174;-61
2023/06/14 03:53:35;;;;;;;4.07;3.70;;;;;;;9.22;100.00;95852.91;5009154;28;101962;-61
2023/06/14 03:56:04;;;;;;;4.33;3.80;;;;;;;9.20;100.00;95855.81;5010773;28;102717;-61
2023/06/14 03:58:41;;;;;;;4.20;3.80;;;;;;;9.38;100.00;95859.94;5008723;28;105501;-61
2023/06/14 04:01:08;;;;;;;5.30;3.97;;;;;;;9.52;100.00;95861.88;5009356;28;101956;-61
2023/06/14 04:03:35;;;;;;;4.57;4.07;;;;;;;9.51;100.00;95862.94;5009318;28;103819;-61
2023/06/14 04:06:06;;;;;;;6.23;4.13;;;;;;;9.63;100.00;95876.00;5008448;28;105459;-61
2023/06/14 04:08:33;;;;;;;4.50;4.10;;;;;;;9.75;100.00;95872.09;5012745;28;101892;-61
2023/06/14 04:11:00;;;;;;;6.57;4.40;;;;;;;9.78;100.00;95878.75;5008169;28;105291;-61
2023/06/14 04:13:27;;;;;;;4.10;3.80;;;;;;;9.87;100.00;95879.88;5009253;28;101963;-61
2023/06/14 04:15:56;;;;;;;5.37;3.90;;;;;;;10.08;100.00;95878.94;5010644;28;102550;-61
2023/06/14 04:18:27;;;;;;;5.40;4.87;;;;;;;10.20;100.00;95882.97;5008141;28;105305;-61
2023/06/14 04:20:56;;;;;;;6.60;4.03;;;;;;;10.32;100.00;95882.75;5008823;28;101924;-61
2023/06/14 04:23:23;;;;;;;4.27;3.87;;;;;;;10.33;100.00;95887.00;5009002;28;104937;-61
2023/06/14 04:25:50;;;;;;;5.63;4.90;;;;;;;10.38;100.00;95889.69;5008224;28;105164;-61
2023/06/14 04:28:18;;;;;;;6.60;4.90;;;;;;;10.35;100.00;95888.34;5008911;28;101943;-61
2023/06/14 04:30:47;;;;;;;6.20;4.73;;;;;;;10.47;100.00;95896.88;5011726;28;105041;-61
2023/06/14 04:33:17;;;;;;;7.60;5.27;;;;;;;10.47;100.00;95896.09;5008286;28;101896;-61
2023/06/14 04:35:47;;;;;;;5.53;5.10;;;;;;;10.63;100.00;95895.88;5008694;28;105281;-61
2023/06/14 04:38:15;;;;;;;9.10;5.43;;;;;;;10.74;100.00;95894.81;5008220;28;105574;-61
2023/06/14 04:40:44;;;;;;;5.20;4.70;;;;;;;10.78;100.00;95889.78;5008744;28;101937;-61
2023/06/14 04:43:13;;;;;;;5.70;4.60;;;;;;;10.92;100.00;95896.19;5008692;28;105099;-61
2023/06/14 04:45:45;;;;;;;5.53;4.53;;;;;;;11.23;100.00;95903.16;5007447;28;105503;-61
2023/06/14 04:48:12;;;;;;;5.57;5.00;;;;;;;11.36;100.00;95905.28;5008671;28;101958;-61
2023/06/14 04:50:41;;;;;;;4.63;4.23;;;;;;;11.38;100.00;95911.94;5008397;28;104748;-61
2023/06/14 04:53:08;;;;;;;6.37;3.80;;;;;;;11.61;100.00;95910.63;5011259;28;105859;-61
2023/06/14 04:55:37;;;;;;;7.63;4.50;;;;;;;11.26;100.00;95910.59;5008545;28;105185;-61
2023/06/14 04:58:05;;;;;;;5.47;4.17;;;;;;;11.72;100.00;95917.53;5007667;28;105727;-61
2023/06/14 05:00:32;;;;;;;6.70;4.50;;;;;;;11.68;100.00;95922.59;5008531;28;101864;-61
2023/06/14 05:03:00;;;;;;;6.83;4.10;;;;;;;12.37;100.00;95920.81;5008496;28;104789;-61
2023/06/14 05:05:28;;;;;;;6.67;4.53;;;;;;;12.64;100.00;95915.91;5007535;28;105270;-61
2023/06/14 05:07:57;;;;;;;4.80;4.23;;;;;;;13.07;100.00;95915.16;5008373;28;102017;-61
2023/06/14 05:10:24;;;;;;;5.63;4.47;;;;;;;13.28;100.00;95910.47;5008075;28;105142;-61
2023/06/14 05:12:52;;;;;;;6.10;4.17;;;;;;;13.51;100.00;95910.56;5008866;28;102553;-61
2023/06/14 05:15:20;;;;;;;5.73;4.83;;;;;;;13.36;100.00;95916.00;5011783;28;101842;-61
2023/06/14 05:17:54;;;;;;;6.13;4.40;;;;;;;13.43;100.00;95913.03;5007538;28;105806;-61
2023/06/14 05:20:22;;;;;;;4.73;4.30;;;;;;;13.60;100.00;95918.78;5009602;28;102134;-61
2023/06/14 05:22:51;;;;;;;5.20;4.20;;;;;;;13.93;100.00;95923.28;5008093;28;104911;-61
2023/06/14 05:25:20;;;;;;;5.10;4.30;;;;;;;13.88;100.00;95920.66;5007611;28;105673;-60
2023/06/14 05:27:46;;;;;;;5.20;4.50;;;;;;;13.63;100.00;95923.56;5007867;28;102171;-60
2023/06/14 05:30:14;;;;;;;5.53;4.60;;;;;;;13.74;100.00;95922.41;5008405;28;103683;-61
2023/06/14 05:32:41;;;;;;;7.13;5.20;;;;;;;13.82;100.00;95922.59;5010913;28;104013;-61
2023/06/14 05:35:09;;;;;;;5.10;4.60;;;;;;;14.06;100.00;95917.28;5011323;28;101893;-61
2023/06/14 05:37:36;;;;;;;6.63;3.90;;;;;;;14.47;100.00;95921.13;5014282;28;105249;-61
2023/06/14 05:40:05;;;;;;;5.27;4.70;;;;;;;14.37;100.00;95926.56;5011146;28;101918;-60
2023/06/14 05:42:34;;;;;;;6.10;4.10;;;;;;;14.31;100.00;95928.53;5012687;28;102489;-61
2023/06/14 05:45:01;;;;;;;5.63;4.60;;;;;;;14.72;100.00;95923.50;5011874;28;102630;-61
2023/06/14 05:47:28;;;;;;;4.97;4.33;;;;;;;15.04;100.00;95929.75;5011332;28;101853;-61
2023/06/14 05:49:55;;;;;;;5.30;4.50;;;;;;;15.14;100.00;95928.78;5011162;28;106108;-61
2023/06/14 05:52:22;;;;;;;5.77;4.43;;;;;;;15.23;100.00;95932.41;5010443;28;105508;-61
2023/06/14 05:54:49;;;;;;;4.90;4.20;;;;;;;15.36;100.00;95932.53;5011226;28;101891;-61
2023/06/14 05:57:18;;;;;;;4.50;3.90;;;;;;;15.71;100.00;95928.50;5014098;28;105215;-61
2023/06/14 05:59:46;;;;;;;5.20;4.30;;;;;;;15.86;100.00;95926.34;5011101;28;102017;-61
2023/06/14 06:02:13;;;;;;;5.47;4.27;;;;;;;15.69;100.00;95934.13;5010821;28;105246;-61
2023/06/14 06:04:40;;;;;;;5.87;4.20;;;;;;;15.69;100.00;95931.47;5010415;28;105816;-61
2023/06/14 06:07:07;;;;;;;7.43;4.40;;;;;;;15.68;100.00;95929.06;5011026;28;102405;-61
2023/06/14 06:09:34;;;;;;;5.27;3.80;;;;;;;15.73;100.00;95929.78;5012497;28;102401;-61
2023/06/14 06:12:01;;;;;;;6.87;4.70;;;;;;;15.43;100.00;95935.63;5011422;28;102852;-61
2023/06/14 06:14:28;;;;;;;5.43;4.27;;;;;;;15.55;100.00;95937.88;5012363;28;101856;-61
2023/06/14 06:16:57;;;;;;;4.37;3.80;;;;;;;15.73;100.00;95939.69;5012149;28;102421;-61
2023/06/14 06:19:23;;;;;;;6.53;3.57;;;;;;;15.98;100.00;95939.28;5013505;28;105442;-61
2023/06/14 06:21:50;;;;;;;5.10;3.90;;;;;;;15.83;100.00;95936.88;5010717;28;105610;-61
2023/06/14 06:24:17;;;;;;;6.37;3.63;;;;;;;16.13;100.00;95941.72;5010109;28;106098;-61
2023/06/14 06:26:44;;;;;;;5.10;3.70;;;;;;;15.83;100.00;95936.88;5012358;28;101912;-61
2023/06/14 06:29:12;;;;;;;4.33;3.93;;;;;;;16.21;100.00;95935.66;5010806;28;105175;-61
2023/06/14 06:31:38;;;;;;;7.00;3.80;;;;;;;15.59;100.00;95946.91;5009802;28;104225;-61
2023/06/14 06:34:07;;;;;;;6.47;3.37;;;;;;;15.57;100.00;95944.53;5010875;28;101910;-61
2023/06/14 06:36:33;;;;;;;5.37;3.30;;;;;;;15.83;100.00;95948.41;5010303;28;105506;-61
2023/06/14 06:39:00;;;;;;;5.17;4.13;;;;;;;15.83;100.00;95952.94;5010048;28;104119;-61
2023/06/14 06:41:27;;;;;;;4.93;3.40;;;;;;;16.27;100.00;95947.88;5013538;28;101898;-61
2023/06/14 06:43:54;;;;;;;3.80;3.47;;;;;;;16.19;100.00;95953.94;5009886;28;105808;-61
2023/06/14 06:46:22;;;;;;;6.00;4.17;;;;;;;16.46;100.00;95948.63;5010159;28;102057;-61
2023/06/14 06:48:49;;;;;;;6.17;3.87;;;;;;;16.32;100.00;95950.47;5010685;28;105465;-61
2023/06/14 06:51:17;;;;;;;7.03;3.70;;;;;;;16.70;100.00;95943.84;5009618;28;105826;-61
2023/06/14 06:53:44;;;;;;;3.83;3.43;;;;;;;16.94;100.00;95945.22;5010195;28;101982;-61
2023/06/14 06:56:11;;;;;;;4.03;3.60;;;;;;;16.45;100.00;95945.16;5010376;28;105441;-61
2023/06/14 06:58:38;;;;;;;3.50;3.13;;;;;;;17.07;100.00;95944.41;5009813;28;105463;-61
2023/06/14 07:01:05;;;;;;;5.03;3.90;;;;;;;17.42;100.00;95949.03;5010023;28;101934;-61
2023/06/14 07:03:32;;;;;;;4.23;3.30;;;;;;;17.71;100.00;95952.09;5014298;28;102350;-61
2023/06/14 07:05:59;;;;;;;3.33;3.07;;;;;;;18.32;100.00;95951.44;5011640;28;101865;-61
2023/06/14 07:08:27;;;;;;;4.10;3.17;;;;;;;18.47;100.00;95957.19;5011815;28;102728;-61
2023/06/14 07:10:54;;;;;;;4.70;3.50;;;;;;;18.50;99.35;95953.88;5009123;28;104246;-61
2023/06/14 07:13:21;;;;;;;3.90;3.30;;;;;;;18.60;99.69;95952.81;5010069;28;102424;-61
2023/06/14 07:15:48;;;;;;;3.50;3.13;;;;;;;18.75;94.89;95961.25;5010063;28;104776;-61
2023/06/14 07:18:15;;;;;;;4.17;3.23;;;;;;;19.01;93.23;95958.66;5010430;28;104690;-61
2023/06/14 07:20:42;;;;;;;3.77;3.30;;;;;;;18.87;88.14;95957.97;5009794;28;101843;-61
2023/06/14 07:23:10;;;;;;;7.93;3.77;;;;;;;19.09;89.55;95966.78;5009912;28;105580;-61
2023/06/14 07:25:38;;;;;;;7.50;3.40;;;;;;;19.11;85.96;95967.25;5012640;28;105535;-61
2023/06/14 07:28:06;;;;;;;6.60;3.47;;;;;;;19.02;87.63;95960.25;5009841;28;103579;-61
2023/06/14 07:30:33;;;;;;;4.37;2.90;;;;;;;19.30;85.98;95969.69;5009069;28;105311;-61
2023/06/14 07:33:00;;;;;;;8.07;3.33;;;;;;;19.18;89.61;95970.25;5009604;28;102248;-61
2023/06/14 07:35:26;;;;;;;6.03;3.60;;;;;;;19.19;78.64;95974.53;5009621;28;105687;-61
2023/06/14 07:37:53;;;;;;;4.63;3.10;;;;;;;19.11;81.32;95963.75;5009497;28;103704;-61
2023/06/14 07:40:20;;;;;;;3.57;3.20;;;;;;;19.18;91.64;95969.50;5009644;28;101839;-61
2023/06/14 07:42:50;;;;;;;5.47;3.10;;;;;;;19.14;90.45;95966.59;5009467;28;103599;-61
2023/06/14 07:45:17;;;;;;;4.60;3.57;;;;;;;19.36;83.63;95971.13;5008424;28;104113;-61
2023/06/14 07:47:44;;;;;;;4.97;3.43;;;;;;;19.35;86.98;95970.31;5013266;28;101771;-61
2023/06/14 07:50:11;;;;;;;4.67;3.70;;;;;;;18.78;90.57;95974.13;5010414;28;102479;-61
2023/06/14 07:52:39;;;;;;;3.67;3.37;;;;;;;19.19;90.67;95971.84;5008752;28;101853;-61
2023/06/14 07:55:07;;;;;;;4.00;3.60;;;;;;;19.64;95.60;95967.81;5010490;28;102956;-61
2023/06/14 07:57:35;;;;;;;5.63;3.63;;;;;;;19.43;87.62;95966.03;5008774;28;105054;-62
2023/06/14 08:00:06;;;;;;;3.03;2.73;;;;;;;20.08;82.67;95964.00;5009273;28;101830;-61
2023/06/14 08:02:39;;;;;;;5.53;3.10;;;;;;;20.45;71.57;95960.59;5007697;28;102135;-62
2023/06/14 08:05:06;;;;;;;5.43;3.40;;;;;;;19.93;84.71;95970.66;5008631;28;103798;-62
2023/06/14 08:07:33;;;;;;;3.40;2.60;;;;;;;20.56;64.32;95959.91;5012505;28;101841;-62
2023/06/14 08:10:00;;;;;;;2.73;2.47;;;;;;;21.09;59.96;95962.09;5008743;28;105782;-62
2023/06/14 08:12:27;;;;;;;2.80;2.57;;;;;;;21.05;58.19;95963.84;5008602;28;101902;-62
2023/06/14 08:14:54;;;;;;;6.30;3.00;;;;;;;20.76;55.35;95961.88;5008977;28;105205;-61
2023/06/14 08:17:22;;;;;;;3.23;2.93;;;;;;;21.12;56.40;95964.13;5008571;28;105582;-61
2023/06/14 08:19:49;;;;;;;3.30;2.97;;;;;;;21.52;55.85;95966.09;5009025;28;101853;-61
2023/06/14 08:22:17;;;;;;;4.57;2.87;;;;;;;21.56;52.46;95964.31;5009104;28;103952;-61
2023/06/14 08:24:45;;;;;;;5.97;2.87;;;;;;;21.89;53.52;95970.59;5008378;28;103753;-61
2023/06/14 08:27:12;;;;;;;2.93;2.43;;;;;;;22.28;53.57;95964.66;5008666;28;101896;-61
2023/06/14 08:29:40;;;;;;;3.97;2.80;;;;;;;22.26;49.96;95971.53;5011660;28;104109;-61
2023/06/14 08:32:08;;;;;;;2.70;2.30;;;;;;;22.23;45.02;95970.28;5008805;28;101908;-61
2023/06/14 08:34:36;;;;;;;2.90;2.10;;;;;;;22.46;46.22;95963.38;5008395;28;105053;-61
2023/06/14 08:37:03;;;;;;;4.70;2.53;;;;;;;22.61;44.49;95968.16;5008193;28;105184;-60
2023/06/14 08:39:29;;;;;;;3.23;2.50;;;;;;;22.98;44.98;95969.78;5008856;28;101887;-61
2023/06/14 08:41:58;;;;;;;2.57;2.37;;;;;;;23.14;46.15;95962.56;5008475;28;105741;-61
2023/06/14 08:44:25;;;;;;;2.90;2.37;;;;;;;22.56;43.60;95967.59;5008124;28;105337;-61
2023/06/14 08:46:53;;;;;;;7.73;2.80;;;;;;;22.75;47.84;95973.25;5010014;28;101829;-61
2023/06/14 08:49:21;;;;;;;2.60;2.40;;;;;;;23.36;44.27;95966.75;5010108;28;102424;-61
2023/06/14 08:51:55;;;;;;;4.07;2.60;;;;;;;23.49;44.61;95971.81;5013109;28;102667;-61
2023/06/14 08:54:24;;;;;;;2.60;2.40;;;;;;;23.57;42.38;95964.66;5008569;28;104829;-61
2023/06/14 08:56:52;;;;;;;2.30;2.07;;;;;;;23.71;40.38;95971.31;5007455;28;106615;-61
2023/06/14 08:59:21;;;;;;;4.57;2.50;;;;;;;23.92;40.46;95963.81;5009980;28;101832;-61
2023/06/14 09:01:49;;;;;;;2.23;2.10;;;;;;;24.16;40.36;95971.09;5008402;28;105109;-61
2023/06/14 09:04:16;;;;;;;2.37;2.17;;;;;;;24.21;37.71;95973.56;5008224;28;104370;-61
2023/06/14 09:06:43;;;;;;;4.10;2.30;;;;;;;24.21;39.43;95974.34;5011913;28;101833;-61
2023/06/14 09:09:12;;;;;;;5.47;2.43;;;;;;;24.33;40.75;95971.56;5011976;28;105227;-61
2023/06/14 09:11:39;;;;;;;4.40;2.20;;;;;;;24.29;40.68;95961.72;5010957;28;105271;-61
2023/06/14 09:14:05;;;;;;;2.50;2.30;;;;;;;24.36;39.61;95972.81;5016707;28;101794;-61
2023/06/14 09:16:33;;;;;;;4.30;2.30;;;;;;;24.55;38.00;95970.19;5010969;28;105049;-61
2023/06/14 09:19:00;;;;;;;6.57;2.30;;;;;;;24.59;38.33;95971.13;5013372;28;101680;-61
2023/06/14 09:21:27;;;;;;;2.87;2.33;;;;;;;24.45;37.83;95966.06;4995265;28;105631;-61
2023/06/14 09:23:53;;;;;;;3.17;2.37;;;;;;;24.72;35.23;95973.41;5011201;28;105224;-61
2023/06/14 09:26:23;;;;;;;3.23;2.37;;;;;;;24.94;36.40;95972.00;5013073;28;101865;-61
2023/06/14 09:28:51;;;;;;;2.47;2.27;;;;;;;24.92;37.25;95974.31;5011577;28;103837;-61
2023/06/14 09:31:19;;;;;;;2.67;2.20;;;;;;;24.87;36.37;95980.81;5012437;28;103134;-61
2023/06/14 09:33:48;;;;;;;3.73;2.47;;;;;;;25.03;35.76;95970.72;5012795;28;101823;-61
2023/06/14 09:36:18;;;;;;;4.80;2.50;;;;;;;25.25;35.59;95977.47;5014408;28;103766;-61
2023/06/14 09:38:54;;;;;;;2.17;2.03;;;;;;;25.05;36.45;95973.06;5012915;28;101711;-61
2023/06/14 09:41:31;;;;;;;2.80;2.37;;;;;;;25.48;35.32;95976.47;5011279;28;103694;-61
2023/06/14 09:44:00;;;;;;;4.00;2.10;;;;;;;25.37;33.84;95980.09;5012380;28;102816;-60
2023/06/14 09:46:28;;;;;;;4.17;2.20;;;;;;;25.78;34.10;95977.53;5012515;28;102373;-64
2023/06/14 09:48:55;;;;;;;2.20;2.00;;;;;;;25.79;34.16;95973.69;5012804;28;102281;-62
2023/06/14 09:51:24;;;;;;;2.40;2.20;;;;;;;25.62;33.22;95979.50;5010400;28;104301;-61
2023/06/14 09:53:52;;;;;;;3.23;2.43;;;;;;;26.11;33.64;95977.09;5011030;28;101915;-62
2023/06/14 09:56:27;;;;;;;2.10;1.97;;;;;;;26.07;34.39;95978.94;5012685;28;102460;-62
2023/06/14 09:58:57;;;;;;;3.20;2.20;;;;;;;26.28;32.20;95974.72;5013551;28;101736;-61
2023/06/14 10:01:27;;;;;;;2.33;2.17;;;;;;;26.15;33.10;95984.19;5011248;28;105814;-61
2023/06/14 10:04:01;;;;;;;2.70;2.50;;;;;;;26.01;32.26;95978.47;5012125;28;102740;-62
2023/06/14 10:06:30;;;;;;;2.80;2.37;;;;;;;25.98;31.87;95975.63;5011225;28;101704;-61
2023/06/14 10:08:59;;;;;;;2.30;2.10;;;;;;;26.44;33.60;95974.63;5010714;28;105283;-61
2023/06/14 10:11:28;;;;;;;2.70;2.20;;;;;;;26.49;33.14;95974.34;5010168;28;105507;-62
2023/06/14 10:13:56;;;;;;;3.93;2.50;;;;;;;26.52;32.40;95965.41;5010705;28;101880;-61
2023/06/14 10:16:30;;;;;;;2.73;2.40;;;;;;;26.74;33.09;95975.59;5010238;28;105745;-62
2023/06/14 10:19:01;;;;;;;2.50;2.30;;;;;;;25.86;34.17;95967.56;5013483;28;105602;-61
2023/06/14 10:21:37;;;;;;;2.20;2.00;;;;;;;26.01;33.94;95961.31;5010572;28;103576;-61
2023/06/14 10:24:10;;;;;;;2.73;2.20;;;;;;;26.41;33.52;95973.41;5010120;28;105916;-61
2023/06/14 10:26:51;;;;;;;3.37;2.30;;;;;;;25.97;33.03;95966.69;5010731;28;101939;-62
2023/06/14 10:29:19;;;;;;;2.77;2.40;;;;;;;26.51;33.25;95956.47;5008808;28;104117;-62
2023/06/14 10:31:47;;;;;;;3.77;2.47;;;;;;;26.51;32.76;95952.94;5009719;28;105582;-62
2023/06/14 10:34:23;;;;;;;2.33;2.00;;;;;;;26.93;33.65;95964.63;5010078;28;101978;-62
2023/06/14 10:37:02;;;;;;;2.30;2.10;;;;;;;26.95;32.71;95962.31;5010397;28;105332;-61
2023/06/14 10:39:30;;;;;;;4.07;2.40;;;;;;;26.73;32.29;95958.44;5008548;28;105954;-62
2023/06/14 10:42:04;;;;;;;2.50;2.30;;;;;;;26.71;32.89;95955.28;5013509;28;101948;-62
2023/06/14 10:44:35;;;;;;;2.57;2.37;;;;;;;26.80;31.80;95958.56;5010411;28;102672;-62
2023/06/14 10:47:02;;;;;;;2.50;2.30;;;;;;;27.01;31.44;95956.19;5011703;28;101707;-62
2023/06/14 10:49:41;;;;;;;4.07;2.40;;;;;;;27.37;29.75;95954.84;5010159;28;103900;-62
2023/06/14 10:52:16;;;;;;;2.40;2.20;;;;;;;27.36;31.28;95958.72;4992668;28;106326;-62
2023/06/14 10:55:14;;;;;;;4.87;2.60;;;;;;;27.40;31.40;95967.78;5009513;28;101875;-61
2023/06/14 10:57:45;;;;;;;2.43;2.13;;;;;;;27.30;30.40;95952.00;5010157;28;103782;-61
2023/06/14 11:00:15;;;;;;;3.47;2.60;;;;;;;27.59;31.57;95949.31;5009285;28;105549;-61
2023/06/14 11:02:56;;;;;;;4.20;2.50;;;;;;;27.59;31.80;95954.78;5011421;28;101837;-61
2023/06/14 11:05:27;;;;;;;3.60;2.63;;;;;;;27.23;30.69;95957.34;5014010;28;103095;-61
2023/06/14 11:08:37;;;;;;;3.15;2.65;;;;;;;27.59;30.51;95957.53;5009490;28;101977;-62
2023/06/14 11:11:07;;;;;;;3.30;2.20;;;;;;;27.08;30.77;95950.06;4989586;28;102361;-61
2023/06/14 11:13:39;;;;;;;2.38;2.20;;;;;;;27.53;31.54;95956.28;5008958;28;103613;-61
2023/06/14 11:16:12;;;;;;;2.70;2.50;;;;;;;27.24;30.81;95954.25;5011148;28;101747;-61
2023/06/14 11:18:39;;;;;;;4.63;2.70;;;;;;;25.46;29.31;95953.47;5010971;28;102381;-61
2023/06/14 11:21:05;;;;;;;4.00;2.60;;;;;;;26.88;30.26;95959.47;5010340;28;102843;-61
2023/06/14 11:23:32;;;;;;;2.83;2.50;;;;;;;26.64;30.36;95957.88;5009572;28;102053;-61
2023/06/14 11:25:59;;;;;;;4.70;2.40;;;;;;;27.24;30.83;95953.47;5009490;28;105134;-61
2023/06/14 11:28:38;;;;;;;3.10;2.50;;;;;;;27.27;31.00;95941.81;5010982;28;105326;-61